Time;durP1;ratioP1;P1;durP2;ratioP2;P2;SDS_P1;SDS_P2;PMS_P1;PMS_P2;Temp;Humidity;BMP_temperature;BMP_pressure;BME280_temperature;BME280_humidity;BME280_pressure;Samples;Min_cycle;Max_cycle;Signal;HPM_P1;HPM_P2
2023/06/10 00:02:08;;;;;;;4.28;2.50;;;;;;;13.07;47.47;100239.13;5018113;28;20109;-67
2023/06/10 00:04:36;;;;;;;3.22;2.47;;;;;;;12.97;47.78;100231.97;5053066;28;20410;-67
2023/06/10 00:07:03;;;;;;;5.10;2.10;;;;;;;13.19;47.13;100226.50;5035858;28;20364;-68
2023/06/10 00:09:29;;;;;;;4.70;2.22;;;;;;;12.77;48.42;100213.84;5035515;28;20045;-66
2023/06/10 00:11:55;;;;;;;4.03;2.10;;;;;;;12.88;48.12;100221.00;5052767;28;20043;-67
2023/06/10 00:14:20;;;;;;;5.05;2.10;;;;;;;12.87;47.90;100213.91;5035607;28;20182;-67
2023/06/10 00:16:46;;;;;;;3.38;2.42;;;;;;;12.57;49.00;100225.41;5053030;28;20028;-68
2023/06/10 00:19:13;;;;;;;2.60;1.95;;;;;;;12.43;48.98;100227.41;5068438;28;20930;-67
2023/06/10 00:21:41;;;;;;;6.43;2.45;;;;;;;12.55;48.73;100238.13;5067894;28;20622;-67
2023/06/10 00:24:11;;;;;;;4.72;2.60;;;;;;;12.61;48.12;100211.59;5035292;28;20044;-67
2023/06/10 00:26:39;;;;;;;5.10;2.35;;;;;;;12.64;48.26;100226.59;5052311;28;20037;-67
2023/06/10 00:29:05;;;;;;;4.65;2.88;;;;;;;12.63;48.30;100227.59;5034859;28;20044;-70
2023/06/10 00:31:31;;;;;;;6.38;2.45;;;;;;;12.74;48.28;100234.75;5018576;28;20025;-67
2023/06/10 00:33:56;;;;;;;3.50;2.40;;;;;;;12.64;48.47;100242.72;5052588;28;20048;-67
2023/06/10 00:36:22;;;;;;;4.97;2.83;;;;;;;12.48;49.30;100245.84;5018934;28;20044;-67
2023/06/10 00:38:47;;;;;;;5.32;2.28;;;;;;;12.43;49.21;100246.19;5018395;28;20115;-68
2023/06/10 00:41:14;;;;;;;5.63;2.60;;;;;;;12.45;49.54;100263.03;5032572;28;20166;-68
2023/06/10 00:43:39;;;;;;;4.07;2.22;;;;;;;12.43;49.70;100265.00;5033273;28;20036;-68
2023/06/10 00:46:05;;;;;;;4.07;2.08;;;;;;;12.58;49.25;100270.94;5052228;28;20086;-68
2023/06/10 00:48:32;;;;;;;4.60;2.58;;;;;;;12.76;48.95;100256.97;5017469;28;20029;-68
2023/06/10 00:50:58;;;;;;;2.83;2.13;;;;;;;12.78;48.96;100266.63;5052080;28;20112;-66
2023/06/10 00:53:25;;;;;;;4.03;2.20;;;;;;;12.29;50.13;100251.81;5034652;28;20357;-70
2023/06/10 00:55:50;;;;;;;4.47;2.28;;;;;;;12.64;49.43;100262.38;5034415;28;20033;-67
2023/06/10 00:58:16;;;;;;;6.20;2.50;;;;;;;12.62;49.54;100271.56;5052398;28;20135;-68
2023/06/10 01:00:42;;;;;;;7.70;2.00;;;;;;;12.48;49.79;100276.22;5033386;28;20055;-67
2023/06/10 01:03:08;;;;;;;3.47;2.00;;;;;;;12.45;49.21;100243.41;5034501;28;20068;-68
2023/06/10 01:05:41;;;;;;;5.80;1.90;;;;;;;12.88;48.77;100277.44;5052396;28;20060;-68
2023/06/10 01:08:10;;;;;;;2.75;2.25;;;;;;;12.63;49.68;100275.94;5034696;28;20037;-67
2023/06/10 01:10:57;;;;;;;2.80;2.50;;;;;;;12.46;50.21;100285.38;5051500;28;20045;-66
2023/06/10 01:13:28;;;;;;;4.75;2.40;;;;;;;12.41;50.57;100291.13;5034707;28;20475;-66
2023/06/10 01:15:54;;;;;;;3.35;2.60;;;;;;;12.60;49.81;100300.38;5052564;28;20107;-67
2023/06/10 01:18:21;;;;;;;4.05;2.30;;;;;;;12.64;49.81;100288.41;5034119;28;20108;-68
2023/06/10 01:20:48;;;;;;;3.42;2.67;;;;;;;12.59;50.29;100310.25;5051370;28;20033;-68
2023/06/10 01:23:15;;;;;;;2.47;2.25;;;;;;;12.56;50.53;100298.91;5052308;28;20056;-67
2023/06/10 01:26:07;;;;;;;4.20;2.65;;;;;;;12.60;50.57;100300.38;5034696;28;20094;-68
2023/06/10 01:28:33;;;;;;;3.03;2.47;;;;;;;12.63;50.62;100303.66;5051083;28;20051;-68
2023/06/10 01:31:22;;;;;;;3.63;2.58;;;;;;;12.64;50.64;100308.03;5051783;28;20108;-69
2023/06/10 01:33:53;;;;;;;4.00;2.90;;;;;;;12.84;50.10;100310.91;5067770;28;20460;-69
2023/06/10 01:36:21;;;;;;;3.58;2.60;;;;;;;12.57;51.04;100309.53;5051466;28;20094;-66
2023/06/10 01:38:48;;;;;;;3.08;2.42;;;;;;;12.60;50.97;100309.28;5051645;28;20124;-67
2023/06/10 01:41:16;;;;;;;4.18;2.47;;;;;;;12.56;51.38;100313.19;5051371;28;20506;-67
2023/06/10 01:43:45;;;;;;;6.47;2.75;;;;;;;12.80;50.76;100316.69;5034701;28;20464;-68
2023/06/10 01:46:11;;;;;;;7.70;2.58;;;;;;;12.61;50.84;100313.66;5051695;28;20040;-69
2023/06/10 01:48:41;;;;;;;4.22;2.60;;;;;;;12.67;51.40;100323.06;5033404;28;20037;-67
2023/06/10 01:51:07;;;;;;;2.70;2.50;;;;;;;12.69;51.02;100321.09;5034310;28;20053;-66
2023/06/10 01:53:33;;;;;;;4.45;2.90;;;;;;;12.87;50.58;100323.25;5034631;28;20025;-67
2023/06/10 01:55:58;;;;;;;7.55;2.60;;;;;;;12.92;50.34;100326.41;5033677;28;20040;-68
2023/06/10 01:58:24;;;;;;;5.63;2.88;;;;;;;12.81;50.66;100329.16;5033731;28;20377;-67
2023/06/10 02:00:50;;;;;;;5.03;2.70;;;;;;;12.76;51.23;100334.88;5033025;28;20033;-68
2023/06/10 02:03:15;;;;;;;8.75;2.72;;;;;;;12.83;50.79;100327.19;5051997;28;20349;-67
2023/06/10 02:05:41;;;;;;;4.18;2.40;;;;;;;12.82;50.93;100338.91;5034423;28;20032;-68
2023/06/10 02:08:06;;;;;;;6.28;2.90;;;;;;;12.69;51.68;100339.06;5033865;28;20025;-67
2023/06/10 02:10:32;;;;;;;6.32;2.63;;;;;;;12.62;51.83;100336.84;5052822;28;20084;-68
2023/06/10 02:12:58;;;;;;;4.72;2.88;;;;;;;12.52;52.13;100341.28;5055624;28;20068;-67
2023/06/10 02:15:24;;;;;;;4.13;2.83;;;;;;;12.68;51.96;100340.88;5037197;28;20365;-67
2023/06/10 02:17:50;;;;;;;4.80;3.00;;;;;;;12.70;51.52;100344.31;5036980;28;20032;-68
2023/06/10 02:20:16;;;;;;;5.40;2.80;;;;;;;12.88;51.72;100346.47;5055068;28;20032;-66
2023/06/10 02:22:41;;;;;;;3.08;2.67;;;;;;;13.06;51.03;100336.88;5054937;28;20392;-68
2023/06/10 02:25:07;;;;;;;5.68;2.72;;;;;;;13.32;49.19;100349.13;5037351;28;20390;-68
2023/06/10 02:27:33;;;;;;;6.15;2.80;;;;;;;13.55;48.64;100344.53;5037195;28;20029;-67
2023/06/10 02:29:58;;;;;;;3.05;2.53;;;;;;;13.85;47.69;100329.44;5055004;28;20075;-66
2023/06/10 02:32:25;;;;;;;9.80;2.67;;;;;;;14.16;46.66;100359.06;5021140;28;20037;-67
2023/06/10 02:34:51;;;;;;;3.63;2.38;;;;;;;14.28;45.48;100350.91;5054798;28;20044;-67
2023/06/10 02:37:17;;;;;;;4.25;2.13;;;;;;;14.43;45.42;100349.53;5054686;28;20441;-68
2023/06/10 02:39:42;;;;;;;2.90;1.90;;;;;;;14.61;44.85;100343.50;5018952;28;20094;-67
2023/06/10 02:42:08;;;;;;;6.13;2.53;;;;;;;14.77;44.13;100357.34;5054553;28;20468;-67
2023/06/10 02:44:34;;;;;;;4.85;2.10;;;;;;;14.60;43.86;100339.09;5037233;28;20029;-67
2023/06/10 02:46:59;;;;;;;4.03;2.20;;;;;;;14.69;43.55;100367.91;5054689;28;20036;-67
2023/06/10 02:49:27;;;;;;;2.38;1.45;;;;;;;14.86;42.58;100377.22;5036773;28;20449;-66
2023/06/10 02:51:53;;;;;;;2.80;2.13;;;;;;;14.55;43.25;100373.69;5054179;28;20033;-67
2023/06/10 02:54:23;;;;;;;8.02;2.20;;;;;;;14.05;44.93;100375.31;5020860;28;20036;-68
2023/06/10 02:56:49;;;;;;;3.42;2.20;;;;;;;14.20;44.34;100376.66;5036941;28;20028;-68
2023/06/10 02:59:15;;;;;;;2.60;1.92;;;;;;;14.54;43.63;100380.06;5036268;28;20028;-67
2023/06/10 03:01:41;;;;;;;2.90;2.13;;;;;;;14.58;43.52;100374.25;5046358;28;20094;-67
2023/06/10 03:04:07;;;;;;;2.17;1.85;;;;;;;14.87;43.26;100372.66;5052389;28;20040;-68
2023/06/10 03:06:33;;;;;;;6.53;2.40;;;;;;;15.31;42.32;100389.34;5053312;28;20033;-66
2023/06/10 03:09:04;;;;;;;5.22;1.70;;;;;;;15.78;40.93;100368.88;5048494;28;20377;-68
2023/06/10 03:11:30;;;;;;;3.47;2.38;;;;;;;15.78;41.09;100361.59;5036394;28;20048;-66
2023/06/10 03:13:57;;;;;;;2.40;2.20;;;;;;;15.93;41.05;100377.41;5053506;28;20514;-68
2023/06/10 03:16:25;;;;;;;2.72;2.17;;;;;;;16.18;40.77;100367.81;5053342;28;20033;-68
2023/06/10 03:18:50;;;;;;;2.95;2.08;;;;;;;16.37;39.85;100339.00;5036157;28;20033;-68
2023/06/10 03:21:16;;;;;;;2.55;2.00;;;;;;;16.97;38.39;100364.72;5053747;28;20278;-68
2023/06/10 03:23:42;;;;;;;2.83;2.05;;;;;;;17.10;38.55;100383.31;5033144;28;20368;-70
2023/06/10 03:26:09;;;;;;;4.15;1.80;;;;;;;17.00;38.45;100333.84;5034707;28;20029;-66
2023/06/10 03:28:35;;;;;;;3.70;1.92;;;;;;;17.55;37.65;100376.13;5017156;28;20128;-67
2023/06/10 03:31:01;;;;;;;5.30;1.83;;;;;;;17.85;36.92;100373.16;5053952;28;20451;-67
2023/06/10 03:33:26;;;;;;;3.58;1.88;;;;;;;17.93;36.51;100341.56;5019037;28;20028;-67
2023/06/10 03:35:52;;;;;;;2.78;1.80;;;;;;;18.41;36.11;100381.84;5035120;28;20025;-67
2023/06/10 03:38:18;;;;;;;5.05;2.08;;;;;;;18.58;35.46;100352.09;5033636;28;20033;-67
2023/06/10 03:40:44;;;;;;;5.93;2.10;;;;;;;19.06;34.85;100357.84;5053663;28;20020;-66
2023/06/10 03:43:10;;;;;;;1.92;1.70;;;;;;;19.34;33.52;100339.41;5052920;28;20086;-66
2023/06/10 03:45:36;;;;;;;2.60;1.67;;;;;;;19.73;33.41;100391.31;5053004;28;20039;-66
2023/06/10 03:48:03;;;;;;;3.10;1.83;;;;;;;19.82;33.15;100384.88;5053691;28;20039;-65
2023/06/10 03:50:29;;;;;;;4.20;1.95;;;;;;;20.16;32.64;100363.97;5054224;28;20457;-66
2023/06/10 03:52:54;;;;;;;3.75;1.63;;;;;;;20.77;31.55;100388.75;5052472;28;20043;-65
2023/06/10 03:55:21;;;;;;;5.32;1.73;;;;;;;21.30;30.78;100381.84;5018769;28;20025;-66
2023/06/10 03:57:48;;;;;;;2.08;1.55;;;;;;;22.08;29.81;100387.16;5053397;28;20107;-67
2023/06/10 04:00:15;;;;;;;5.13;1.50;;;;;;;22.90;28.63;100382.66;5052952;28;20036;-66
2023/06/10 04:02:45;;;;;;;2.22;1.50;;;;;;;23.08;27.65;100363.13;5052464;28;20028;-67
2023/06/10 04:05:15;;;;;;;2.67;1.45;;;;;;;23.49;26.87;100388.16;5034782;28;20052;-67
2023/06/10 04:07:42;;;;;;;4.10;1.60;;;;;;;23.78;26.41;100389.03;5019110;28;20033;-67
2023/06/10 04:10:09;;;;;;;3.38;1.67;;;;;;;24.36;25.71;100388.84;5052707;28;20175;-67
2023/06/10 04:12:35;;;;;;;3.38;1.50;;;;;;;24.82;24.85;100388.47;5035581;28;20048;-69
2023/06/10 04:15:02;;;;;;;2.28;1.30;;;;;;;25.27;24.24;100386.09;5018997;28;20029;-67
2023/06/10 04:17:30;;;;;;;3.67;1.20;;;;;;;25.80;23.33;100392.69;5035924;28;20029;-66
2023/06/10 04:19:56;;;;;;;2.45;1.20;;;;;;;26.36;22.81;100399.63;5034836;28;20044;-65
2023/06/10 04:22:22;;;;;;;2.13;1.17;;;;;;;26.88;21.13;100352.16;5052786;28;20136;-65
2023/06/10 04:24:48;;;;;;;2.10;1.10;;;;;;;26.69;20.95;100386.03;5051984;28;20021;-66
2023/06/10 04:27:14;;;;;;;3.72;1.40;;;;;;;26.95;20.54;100371.38;5034721;28;20048;-66
2023/06/10 04:29:40;;;;;;;2.90;1.33;;;;;;;26.95;20.52;100390.59;5051785;28;20028;-66
2023/06/10 04:32:06;;;;;;;2.22;1.50;;;;;;;26.83;20.43;100386.84;5052411;28;20035;-67
2023/06/10 04:34:36;;;;;;;1.48;1.20;;;;;;;27.63;20.16;100380.88;5051735;28;20100;-67
2023/06/10 04:37:01;;;;;;;3.65;1.20;;;;;;;28.87;19.13;100385.81;5035080;28;20035;-64
2023/06/10 04:39:27;;;;;;;4.95;1.33;;;;;;;29.83;17.54;100351.94;5034239;28;20037;-55
2023/06/10 04:41:53;;;;;;;3.40;1.20;;;;;;;30.86;16.89;100386.53;5052452;28;20037;-56
2023/06/10 04:44:18;;;;;;;1.70;1.20;;;;;;;31.41;16.49;100381.50;5051972;28;20037;-57
2023/06/10 04:46:45;;;;;;;4.55;1.23;;;;;;;31.81;15.56;100396.31;5052019;28;20460;-60
2023/06/10 04:49:11;;;;;;;1.40;1.25;;;;;;;31.19;15.89;100404.34;5052092;28;20099;-61
2023/06/10 04:51:37;;;;;;;4.43;1.40;;;;;;;30.88;15.96;100395.44;5052324;28;20436;-58
2023/06/10 04:54:03;;;;;;;4.10;1.25;;;;;;;30.27;16.18;100411.50;5051828;28;20028;-57
2023/06/10 04:56:30;;;;;;;3.58;1.20;;;;;;;31.35;15.99;100411.03;5052353;28;20029;-58
2023/06/10 04:58:56;;;;;;;1.20;1.10;;;;;;;32.24;15.12;100404.16;5051767;28;20100;-61
2023/06/10 05:01:22;;;;;;;7.75;1.55;;;;;;;31.68;15.29;100382.78;5051935;28;20111;-55
2023/06/10 05:03:48;;;;;;;1.95;1.10;;;;;;;32.11;14.48;100388.72;5051769;28;20055;-58
2023/06/10 05:06:13;;;;;;;3.38;1.65;;;;;;;33.12;14.54;100416.41;5052036;28;20028;-57
2023/06/10 05:08:39;;;;;;;5.38;1.23;;;;;;;33.20;13.81;100414.03;5051378;28;20064;-62
2023/06/10 05:11:04;;;;;;;4.68;1.40;;;;;;;33.25;14.03;100399.34;5034221;28;20087;-64
2023/06/10 05:13:30;;;;;;;5.20;1.40;;;;;;;33.99;13.34;100410.03;5050335;28;20423;-57
2023/06/10 05:15:55;;;;;;;2.42;1.10;;;;;;;34.06;13.10;100418.97;5051682;28;20032;-68
2023/06/10 05:18:21;;;;;;;4.45;1.38;;;;;;;33.98;13.12;100413.91;5034091;28;20025;-57
2023/06/10 05:20:46;;;;;;;1.80;1.27;;;;;;;34.31;13.05;100411.91;5051801;28;20036;-56
2023/06/10 05:23:12;;;;;;;2.70;1.63;;;;;;;34.69;12.72;100412.69;5033533;28;20025;-56
2023/06/10 05:25:38;;;;;;;1.35;1.20;;;;;;;35.73;12.19;100424.09;5052358;28;20071;-59
2023/06/10 05:28:03;;;;;;;3.17;1.63;;;;;;;36.52;11.62;100414.53;5051497;28;20057;-59
2023/06/10 05:30:29;;;;;;;2.47;1.30;;;;;;;36.93;11.51;100428.31;5051490;28;20033;-59
2023/06/10 05:32:56;;;;;;;2.55;1.30;;;;;;;36.87;11.26;100418.28;5046005;28;20398;-54
2023/06/10 05:35:22;;;;;;;2.17;1.40;;;;;;;37.06;11.06;100424.09;5051659;28;20110;-58
2023/06/10 05:37:48;;;;;;;4.35;1.48;;;;;;;37.43;11.06;100421.91;5033403;28;20176;-59
2023/06/10 05:40:13;;;;;;;4.15;1.70;;;;;;;37.15;10.68;100415.94;5051389;28;20060;-59
2023/06/10 05:42:39;;;;;;;4.68;1.65;;;;;;;36.87;11.02;100409.91;5052175;28;20032;-58
2023/06/10 05:45:06;;;;;;;3.55;1.40;;;;;;;37.41;10.80;100441.72;5052593;28;20317;-58
2023/06/10 05:47:32;;;;;;;6.78;1.58;;;;;;;37.45;11.11;100441.97;5055760;28;20075;-74
2023/06/10 05:49:57;;;;;;;2.60;1.50;;;;;;;37.09;10.63;100403.13;5055662;28;20083;-58
2023/06/10 05:52:23;;;;;;;4.90;1.90;;;;;;;37.27;10.76;100422.00;5055640;28;20040;-59
2023/06/10 05:54:50;;;;;;;4.50;1.45;;;;;;;37.23;10.50;100447.97;5056191;28;20025;-58
2023/06/10 05:57:15;;;;;;;6.15;1.70;;;;;;;37.97;10.28;100438.81;5055570;28;20033;-57
2023/06/10 05:59:41;;;;;;;2.88;1.50;;;;;;;38.54;9.87;100441.03;5055408;28;20025;-63
2023/06/10 06:02:06;;;;;;;2.20;2.00;;;;;;;38.76;9.49;100432.09;5055362;28;20437;-60
2023/06/10 06:04:32;;;;;;;5.20;1.60;;;;;;;38.36;9.59;100429.47;5055437;28;20029;-56
2023/06/10 06:06:57;;;;;;;4.00;1.58;;;;;;;38.28;10.04;100438.50;5055271;28;20361;-57
2023/06/10 06:09:23;;;;;;;5.22;1.92;;;;;;;38.68;9.62;100433.59;5054707;28;20080;-58
2023/06/10 06:11:48;;;;;;;4.50;1.60;;;;;;;39.36;9.61;100433.53;5054992;28;20033;-58
2023/06/10 06:14:14;;;;;;;1.92;1.20;;;;;;;38.22;10.14;100439.69;5055277;28;20432;-60
2023/06/10 06:16:39;;;;;;;4.13;1.50;;;;;;;37.38;10.57;100447.03;5055282;28;20431;-59
2023/06/10 06:19:05;;;;;;;4.00;1.40;;;;;;;35.29;11.49;100429.03;5055148;28;20028;-56
2023/06/10 06:21:31;;;;;;;3.60;1.20;;;;;;;36.24;11.41;100433.53;5054896;28;20025;-57
2023/06/10 06:23:57;;;;;;;4.32;1.40;;;;;;;36.47;10.92;100427.34;5055266;28;20024;-57
2023/06/10 06:26:23;;;;;;;3.35;1.60;;;;;;;35.87;11.89;100444.69;5055234;28;20025;-60
2023/06/10 06:28:48;;;;;;;5.63;1.75;;;;;;;36.06;11.05;100446.94;5055153;28;20523;-57
2023/06/10 06:31:14;;;;;;;3.03;1.38;;;;;;;36.72;10.67;100433.13;5054594;28;20047;-57
2023/06/10 06:33:40;;;;;;;3.47;1.10;;;;;;;38.74;9.69;100442.78;5055233;28;20502;-61
2023/06/10 06:36:05;;;;;;;2.55;1.40;;;;;;;38.84;9.55;100439.81;5055191;28;20041;-59
2023/06/10 06:38:31;;;;;;;3.60;1.50;;;;;;;37.78;10.83;100447.88;5054691;28;20061;-59
2023/06/10 06:41:02;;;;;;;2.90;1.23;;;;;;;38.56;9.93;100452.75;5054668;28;20124;-58
2023/06/10 06:43:28;;;;;;;1.35;1.10;;;;;;;36.54;11.06;100451.34;5053597;28;20029;-56
2023/06/10 06:45:53;;;;;;;2.55;0.98;;;;;;;33.20;13.58;100460.34;5054357;28;20094;-61
2023/06/10 06:48:19;;;;;;;1.25;0.98;;;;;;;30.34;15.77;100462.78;5054227;28;20116;-61
2023/06/10 06:50:44;;;;;;;4.57;1.30;;;;;;;28.18;18.19;100470.22;5054223;28;20037;-61
2023/06/10 06:53:10;;;;;;;2.30;0.93;;;;;;;30.01;16.66;100458.66;5054176;28;20057;-57
2023/06/10 06:55:35;;;;;;;5.35;1.08;;;;;;;33.43;13.33;100458.38;5054219;28;20076;-54
2023/06/10 06:58:03;;;;;;;4.47;0.70;;;;;;;34.20;12.73;100459.06;5052039;28;20021;-58
2023/06/10 07:00:30;;;;;;;5.13;1.17;;;;;;;35.18;11.57;100480.19;5054823;28;20123;-57
2023/06/10 07:02:56;;;;;;;4.80;1.42;;;;;;;36.51;10.81;100443.50;5054010;28;20216;-55
2023/06/10 07:05:26;;;;;;;3.40;1.40;;;;;;;38.37;9.61;100458.25;5053848;28;20033;-57
2023/06/10 07:07:54;;;;;;;6.50;1.20;;;;;;;40.00;8.08;100458.31;5053823;28;20354;-59
2023/06/10 07:10:24;;;;;;;2.75;1.10;;;;;;;41.26;7.86;100475.22;5054455;28;20084;-56
2023/06/10 07:12:51;;;;;;;2.47;1.10;;;;;;;41.68;7.32;100480.72;5053511;28;20086;-58
2023/06/10 07:15:17;;;;;;;3.58;1.10;;;;;;;42.26;7.03;100471.66;5053595;28;20104;-55
2023/06/10 07:17:43;;;;;;;4.25;1.20;;;;;;;41.84;7.18;100485.94;5054195;28;20437;-56
2023/06/10 07:20:09;;;;;;;2.03;1.00;;;;;;;41.32;7.49;100473.09;5054585;28;20056;-54
2023/06/10 07:22:35;;;;;;;1.80;0.95;;;;;;;41.23;7.46;100469.38;5053667;28;20028;-53
2023/06/10 07:25:00;;;;;;;4.43;1.10;;;;;;;42.22;6.92;100470.66;5036102;28;20365;-52
2023/06/10 07:27:26;;;;;;;2.10;0.95;;;;;;;42.75;6.56;100468.88;5054133;28;20127;-53
2023/06/10 07:29:51;;;;;;;2.20;1.13;;;;;;;43.45;6.66;100465.38;5036828;28;20035;-53
2023/06/10 07:32:17;;;;;;;1.85;1.00;;;;;;;44.58;6.20;100471.97;5053380;28;20040;-59
2023/06/10 07:34:43;;;;;;;2.42;1.05;;;;;;;44.67;5.97;100474.75;5053913;28;20033;-55
2023/06/10 07:37:09;;;;;;;1.52;1.00;;;;;;;41.59;7.23;100483.44;5053601;28;20041;-54
2023/06/10 07:39:34;;;;;;;7.28;1.25;;;;;;;38.14;8.99;100472.75;5043222;28;20124;-52
2023/06/10 07:42:01;;;;;;;4.13;1.10;;;;;;;38.96;8.75;100486.19;5043840;28;20048;-54
2023/06/10 07:44:26;;;;;;;2.60;1.00;;;;;;;38.84;8.43;100483.78;5053230;28;20441;-54
2023/06/10 07:46:52;;;;;;;4.95;1.10;;;;;;;38.94;8.80;100482.81;5053164;28;20040;-55
2023/06/10 07:49:17;;;;;;;3.20;1.00;;;;;;;35.49;10.75;100458.84;5054098;28;20041;-63
2023/06/10 07:51:43;;;;;;;5.65;0.98;;;;;;;32.77;13.31;100496.94;5053542;28;20116;-54
2023/06/10 07:54:09;;;;;;;2.20;0.90;;;;;;;30.46;14.70;100492.31;5053118;28;20115;-52
2023/06/10 07:56:34;;;;;;;6.43;1.25;;;;;;;28.12;17.03;100498.59;5052944;28;20025;-53
2023/06/10 07:59:00;;;;;;;3.33;1.10;;;;;;;26.79;18.54;100490.78;5053143;28;20132;-51
2023/06/10 08:01:25;;;;;;;3.25;1.10;;;;;;;25.88;19.34;100491.25;5052312;28;20012;-51
2023/06/10 08:03:51;;;;;;;4.93;1.13;;;;;;;26.18;18.93;100501.84;5053187;28;20037;-58
2023/06/10 08:06:17;;;;;;;3.45;0.80;;;;;;;26.13;19.01;100460.44;5032980;28;20026;-57
2023/06/10 08:08:44;;;;;;;2.25;0.68;;;;;;;28.44;16.73;100489.47;5050490;28;20043;-66
2023/06/10 08:11:12;;;;;;;4.57;1.00;;;;;;;31.19;14.22;100469.88;5051635;28;20052;-65
2023/06/10 08:13:38;;;;;;;5.70;1.23;;;;;;;33.06;12.49;100494.03;5052130;28;20048;-60
2023/06/10 08:16:04;;;;;;;4.30;0.90;;;;;;;33.64;12.07;100501.06;5034726;28;20029;-60
2023/06/10 08:18:29;;;;;;;3.78;0.80;;;;;;;34.18;11.39;100502.16;5052093;28;20098;-65
2023/06/10 08:20:55;;;;;;;4.13;1.08;;;;;;;34.29;11.33;100492.75;5051513;28;20029;-61
2023/06/10 08:23:21;;;;;;;4.70;0.88;;;;;;;33.13;11.77;100476.34;5051852;28;20041;-61
2023/06/10 08:25:46;;;;;;;2.78;0.75;;;;;;;31.16;12.56;100509.06;5052459;28;20119;-61
2023/06/10 08:28:12;;;;;;;4.05;1.15;;;;;;;28.43;14.73;100496.88;5051450;28;20069;-61
2023/06/10 08:30:37;;;;;;;2.95;0.90;;;;;;;26.07;17.95;100496.97;5051998;28;20028;-61
2023/06/10 08:33:03;;;;;;;1.02;0.60;;;;;;;24.74;19.34;100482.56;5034208;28;20032;-61
2023/06/10 08:35:28;;;;;;;6.00;1.05;;;;;;;23.95;20.13;100515.38;5033330;28;20079;-60
2023/06/10 08:37:54;;;;;;;7.80;1.10;;;;;;;23.26;20.80;100512.09;5051968;28;20173;-61
2023/06/10 08:40:20;;;;;;;2.50;0.90;;;;;;;22.88;21.12;100517.66;5052897;28;20111;-73
2023/06/10 08:42:53;;;;;;;1.52;0.70;;;;;;;22.59;21.48;100522.91;5052279;28;20094;-61
2023/06/10 08:45:21;;;;;;;6.80;1.13;;;;;;;22.15;21.77;100526.34;5052708;28;20450;-62
2023/06/10 08:47:53;;;;;;;4.03;1.00;;;;;;;21.91;21.87;100530.97;5052557;28;20048;-60
2023/06/10 08:50:19;;;;;;;2.53;0.80;;;;;;;21.69;22.41;100510.81;5052604;28;20033;-60
2023/06/10 08:52:48;;;;;;;3.53;1.25;;;;;;;21.84;22.50;100502.75;5051677;28;20117;-61
2023/06/10 08:55:22;;;;;;;2.40;0.90;;;;;;;21.98;22.52;100531.94;5052117;28;20029;-60
2023/06/10 08:57:48;;;;;;;3.58;1.10;;;;;;;21.80;22.63;100532.22;5052587;28;20029;-60
2023/06/10 09:00:15;;;;;;;3.30;1.20;;;;;;;21.64;22.70;100544.06;5051881;28;20031;-58
2023/06/10 09:02:42;;;;;;;1.35;1.20;;;;;;;20.98;23.46;100498.94;5051235;28;20037;-60
2023/06/10 09:05:09;;;;;;;5.93;1.10;;;;;;;21.01;23.31;100544.84;5034625;28;20044;-59
2023/06/10 09:07:36;;;;;;;8.63;1.10;;;;;;;21.10;23.43;100547.53;5051826;28;20060;-65
2023/06/10 09:10:03;;;;;;;10.50;5.00;;;;;;;21.08;23.61;100534.09;5051465;28;20106;-62
2023/06/10 09:12:29;;;;;;;8.82;1.42;;;;;;;21.20;22.93;100540.84;5051541;28;20037;-62
2023/06/10 09:14:55;;;;;;;4.15;1.00;;;;;;;20.88;23.42;100547.25;5051939;28;20112;-62
2023/06/10 09:17:22;;;;;;;5.68;1.05;;;;;;;20.54;23.65;100542.88;5052209;28;20025;-73
2023/06/10 09:19:47;;;;;;;4.25;1.25;;;;;;;20.42;23.67;100548.66;5051568;28;20119;-62
2023/06/10 09:22:13;;;;;;;3.40;1.00;;;;;;;20.48;22.40;100547.97;5051214;28;20862;-59
2023/06/10 09:24:39;;;;;;;4.40;1.13;;;;;;;20.51;21.93;100553.09;5035087;28;20036;-58
2023/06/10 09:27:08;;;;;;;3.13;0.93;;;;;;;20.12;22.61;100539.28;5017622;28;20532;-59
2023/06/10 09:29:47;;;;;;;1.38;0.70;;;;;;;20.07;23.75;100540.66;5051312;28;20029;-60
2023/06/10 09:32:13;;;;;;;0.95;0.77;;;;;;;20.40;24.74;100538.97;5051353;28;20106;-62
2023/06/10 09:34:39;;;;;;;4.55;1.35;;;;;;;20.91;24.55;100550.50;5051911;28;20112;-60
2023/06/10 09:37:05;;;;;;;4.80;0.80;;;;;;;21.12;23.45;100534.59;5051253;28;20411;-60
2023/06/10 09:39:31;;;;;;;5.63;1.10;;;;;;;21.20;23.52;100534.53;5034050;28;20124;-61
2023/06/10 09:41:56;;;;;;;8.45;1.13;;;;;;;21.24;22.63;100544.09;5051518;28;20087;-61
2023/06/10 09:44:23;;;;;;;2.15;1.10;;;;;;;20.93;23.60;100531.25;5034192;28;20044;-59
2023/06/10 09:46:54;;;;;;;8.77;1.10;;;;;;;20.96;23.93;100538.22;5050922;28;20035;-60
2023/06/10 09:49:19;;;;;;;5.18;0.90;;;;;;;21.32;23.09;100540.47;5051358;28;20051;-62
2023/06/10 09:51:55;;;;;;;6.88;2.55;;;;;;;21.88;22.74;100548.53;5032238;28;20414;-62
2023/06/10 09:54:21;;;;;;;9.70;5.97;;;;;;;21.85;22.65;100548.88;5050260;28;20051;-61
2023/06/10 09:56:48;;;;;;;4.07;1.27;;;;;;;21.70;21.66;100550.69;5050871;28;20025;-61
2023/06/10 09:59:14;;;;;;;2.85;0.80;;;;;;;21.28;22.29;100559.03;5050822;28;20032;-60
2023/06/10 10:01:40;;;;;;;4.05;1.00;;;;;;;20.99;22.82;100540.59;5051162;28;20028;-61
2023/06/10 10:04:05;;;;;;;3.47;1.02;;;;;;;20.58;23.54;100557.81;5050781;28;20108;-61
2023/06/10 10:06:31;;;;;;;4.35;1.00;;;;;;;20.50;22.37;100548.66;5051564;28;20052;-61
2023/06/10 10:08:57;;;;;;;5.55;1.10;;;;;;;20.28;22.44;100547.47;5044819;28;20060;-67
2023/06/10 10:11:23;;;;;;;5.80;1.25;;;;;;;20.15;23.27;100553.41;5033892;28;20392;-60
2023/06/10 10:13:50;;;;;;;2.88;0.75;;;;;;;20.20;23.36;100553.75;5052086;28;20021;-61
2023/06/10 10:16:22;;;;;;;11.45;1.30;;;;;;;20.32;23.67;100556.97;5051822;28;20108;-61
2023/06/10 10:19:05;;;;;;;70.65;4.57;;;;;;;20.32;23.11;100537.09;5050858;28;20400;-61
2023/06/10 10:21:37;;;;;;;124.68;8.55;;;;;;;20.40;22.95;100558.84;5051105;28;20422;-58
2023/06/10 10:24:12;;;;;;;66.35;4.18;;;;;;;20.37;23.26;100556.47;5050968;28;20071;-59
2023/06/10 10:26:38;;;;;;;65.57;5.43;;;;;;;20.47;22.46;100562.56;5033505;28;20029;-60
2023/06/10 10:29:24;;;;;;;38.15;2.78;;;;;;;20.59;22.35;100560.34;5032492;28;20041;-61
2023/06/10 10:31:54;;;;;;;;;;;;;;;21.26;21.63;100566.53;5052270;28;20040;-61
2023/06/10 10:34:49;;;;;;;5.05;0.90;;;;;;;20.99;21.27;100541.47;5054686;28;19923;-61
2023/06/10 10:37:14;;;;;;;54.05;4.00;;;;;;;20.93;21.97;100561.19;5050355;28;20041;-66
2023/06/10 10:39:40;;;;;;;11.40;1.05;;;;;;;20.79;21.87;100520.06;5054390;28;20040;-60
2023/06/10 10:42:09;;;;;;;50.00;4.53;;;;;;;20.93;22.31;100553.03;5037128;28;20021;-62
2023/06/10 10:44:37;;;;;;;94.70;5.82;;;;;;;20.75;22.74;100534.16;5037277;28;20033;-64
2023/06/10 10:47:07;;;;;;;146.95;9.38;;;;;;;20.82;23.23;100561.56;5036482;28;20052;-60
2023/06/10 10:49:35;;;;;;;81.30;4.97;;;;;;;20.90;23.12;100561.53;5052036;28;20132;-64
2023/06/10 10:52:01;;;;;;;53.47;3.67;;;;;;;20.90;22.83;100551.50;5052145;28;20037;-64
2023/06/10 10:54:35;;;;;;;84.72;5.90;;;;;;;20.82;22.97;100561.56;5052217;28;20017;-60
2023/06/10 10:57:15;;;;;;;196.43;12.88;;;;;;;20.93;22.75;100566.63;5033448;28;20419;-61
2023/06/10 10:59:46;;;;;;;153.93;11.35;;;;;;;21.00;22.78;100566.78;5051107;28;20028;-61
2023/06/10 11:02:31;;;;;;;108.45;8.10;;;;;;;21.11;22.84;100560.13;5047754;28;20032;-64
2023/06/10 11:04:57;;;;;;;9.23;1.40;;;;;;;21.08;21.61;100564.91;5048688;28;20132;-64
2023/06/10 11:07:25;;;;;;;11.52;1.23;;;;;;;20.94;21.73;100561.03;5053811;28;20507;-57
2023/06/10 11:10:00;;;;;;;5.68;1.23;;;;;;;20.53;22.31;100571.94;5054860;28;20072;-58
2023/06/10 11:12:59;;;;;;;7.45;1.27;;;;;;;20.01;22.53;100546.78;5037523;28;20421;-73
2023/06/10 11:15:27;;;;;;;42.92;2.80;;;;;;;19.68;23.32;100562.13;5054316;28;20071;-61
2023/06/10 11:18:12;;;;;;;3.28;1.13;;;;;;;19.61;22.82;100549.22;5054430;28;20025;-58
2023/06/10 11:20:50;;;;;;;2.83;0.90;;;;;;;19.47;22.51;100545.28;5036874;28;20029;-59
2023/06/10 11:23:25;;;;;;;1.15;0.60;;;;;;;19.38;22.67;100548.13;5054515;28;20079;-57
2023/06/10 11:25:51;;;;;;;47.28;3.42;;;;;;;19.20;23.20;100517.34;5053953;28;20142;-58